createdAt,value
2019-05-10T00:09:17.592Z,9.60
2019-05-10T00:24:17.786Z,11.40
2019-05-10T00:39:19.495Z,9.60
2019-05-10T00:54:20.517Z,19.10
2019-05-10T01:09:20.630Z,12.40
2019-05-10T01:24:20.795Z,12.60
2019-05-10T01:39:21.271Z,12.00
2019-05-10T01:54:21.754Z,13.80
2019-05-10T02:09:27.541Z,11.30
2019-05-10T02:24:29.701Z,12.20
2019-05-10T02:39:32.836Z,12.50
2019-05-10T02:54:36.969Z,14.10
2019-05-10T03:09:37.408Z,12.60
2019-05-10T03:24:37.754Z,13.80
2019-05-10T03:39:37.828Z,12.30
2019-05-10T03:54:38.007Z,11.80
2019-05-10T04:09:38.136Z,8.00
2019-05-10T04:24:38.286Z,8.90
2019-05-10T04:39:38.520Z,7.90
2019-05-10T04:54:38.665Z,9.60
2019-05-10T05:09:38.823Z,10.20
2019-05-10T05:24:38.972Z,10.90
2019-05-10T05:39:39.072Z,10.50
2019-05-10T05:54:39.203Z,10.50
2019-05-10T06:09:39.510Z,11.10
2019-05-10T06:24:39.674Z,5.70
2019-05-10T06:39:39.847Z,5.60
2019-05-10T06:54:40.069Z,6.50
2019-05-10T07:10:01.077Z,5.10
2019-05-10T07:24:45.374Z,8.50
2019-05-10T07:39:45.595Z,10.80
2019-05-10T07:54:47.815Z,11.00
2019-05-10T08:09:48.754Z,12.50
2019-05-10T08:24:52.702Z,17.90
2019-05-10T08:39:56.125Z,18.80
2019-05-10T08:54:56.446Z,19.10
2019-05-10T09:09:56.755Z,24.00
2019-05-10T09:24:56.955Z,16.30
2019-05-10T09:40:05.966Z,18.40
2019-05-10T09:55:04.061Z,19.10
2019-05-10T10:10:12.858Z,21.20
2019-05-10T10:25:14.080Z,32.40
2019-05-10T10:40:17.719Z,14.10
2019-05-10T10:55:18.774Z,45.90
2019-05-10T11:10:21.609Z,26.60
2019-05-10T11:25:22.709Z,10.30
2019-05-10T11:40:29.783Z,10.40
2019-05-10T11:55:28.040Z,11.50
2019-05-10T12:10:28.148Z,9.40
2019-05-10T12:25:47.212Z,8.90
2019-05-10T12:40:33.713Z,10.30
2019-05-10T12:55:33.810Z,7.90
2019-05-10T13:10:37.251Z,7.30
2019-05-10T13:25:39.157Z,4.30
2019-05-10T13:40:45.592Z,4.80
2019-05-10T13:55:44.567Z,6.10
2019-05-10T14:10:44.654Z,3.20
2019-05-10T14:25:44.793Z,7.00
2019-05-10T14:40:44.877Z,6.60
2019-05-10T14:55:45.043Z,4.80
2019-05-10T15:10:45.186Z,9.30
2019-05-10T15:25:56.432Z,3.80
2019-05-10T15:40:50.394Z,5.10
2019-05-10T15:55:50.601Z,2.10
2019-05-10T16:10:50.747Z,2.40
2019-05-10T16:25:50.868Z,2.60
2019-05-10T16:40:57.980Z,1.50
2019-05-10T16:55:56.117Z,2.00
2019-05-10T17:11:15.431Z,3.30
2019-05-10T17:26:15.534Z,1.70
2019-05-10T17:41:19.438Z,2.70
2019-05-10T17:56:20.814Z,3.00
2019-05-10T18:11:20.950Z,3.60
2019-05-10T18:26:21.115Z,2.40
2019-05-10T18:41:21.300Z,2.60
2019-05-10T18:56:25.483Z,5.70
2019-05-10T19:11:26.565Z,4.30
2019-05-10T19:26:31.606Z,4.10
2019-05-10T19:41:31.865Z,3.90
2019-05-10T19:56:37.067Z,6.20
2019-05-10T20:11:37.400Z,17.10
2019-05-10T20:26:37.592Z,14.40
2019-05-10T20:41:37.835Z,10.10
2019-05-10T20:56:37.939Z,10.60
2019-05-10T21:11:38.229Z,9.80
2019-05-10T21:26:38.577Z,7.90
2019-05-10T21:41:38.797Z,9.20
2019-05-10T21:56:39.041Z,15.90
2019-05-10T22:11:39.258Z,12.80
2019-05-10T22:26:39.466Z,13.20
2019-05-10T22:41:39.589Z,14.10
2019-05-10T22:56:39.785Z,15.60
2019-05-10T23:11:40.129Z,12.10
2019-05-10T23:26:40.285Z,11.30
2019-05-10T23:41:40.441Z,10.40
2019-05-10T23:56:40.690Z,10.20
